createdAt,value
2019-04-06T00:02:56.992Z,91.60
2019-04-06T00:08:59.283Z,91.40
2019-04-06T00:15:02.115Z,91.50
2019-04-06T00:21:04.766Z,91.30
2019-04-06T00:27:07.014Z,91.50
2019-04-06T00:33:11.263Z,91.10
2019-04-06T00:39:14.009Z,91.20
2019-04-06T00:45:17.863Z,91.30
2019-04-06T00:51:20.031Z,91.10
2019-04-06T00:57:23.575Z,90.90
2019-04-06T01:03:26.623Z,91.20
2019-04-06T01:09:28.982Z,91.30
2019-04-06T01:15:31.466Z,91.30
2019-04-06T01:21:36.264Z,91.50
2019-04-06T01:27:39.232Z,91.40
2019-04-06T01:33:41.994Z,91.60
2019-04-06T01:39:44.234Z,91.80
2019-04-06T01:45:46.988Z,92.10
2019-04-06T01:51:49.253Z,92.50
2019-04-06T01:57:52.769Z,92.00
2019-04-06T02:03:55.186Z,91.90
2019-04-06T02:09:57.506Z,91.70
2019-04-06T02:16:05.927Z,91.80
2019-04-06T02:22:08.121Z,92.00
2019-04-06T02:28:10.452Z,92.10
2019-04-06T02:34:26.623Z,92.20
2019-04-06T02:40:39.368Z,92.40
2019-04-06T02:46:41.692Z,92.00
2019-04-06T02:52:43.934Z,91.90
2019-04-06T02:58:48.721Z,92.20
2019-04-06T03:04:51.472Z,92.40
2019-04-06T03:10:53.833Z,92.60
2019-04-06T03:16:56.373Z,92.70
2019-04-06T03:23:00.807Z,93.10
2019-04-06T03:29:03.061Z,92.70
2019-04-06T03:35:05.696Z,92.80
2019-04-06T03:41:08.865Z,92.90
2019-04-06T03:47:13.025Z,92.60
2019-04-06T03:53:15.462Z,92.60
2019-04-06T03:59:17.766Z,92.60
2019-04-06T04:05:20.540Z,92.40
2019-04-06T04:11:22.805Z,92.30
2019-04-06T04:17:26.538Z,92.30
2019-04-06T04:23:35.037Z,92.10
2019-04-06T04:29:38.627Z,92.10
2019-04-06T04:35:41.122Z,92.10
2019-04-06T04:41:43.460Z,92.00
2019-04-06T04:47:50.043Z,91.90
2019-04-06T04:53:52.910Z,91.80
2019-04-06T04:59:56.045Z,91.80
2019-04-06T05:06:03.443Z,91.50
2019-04-06T05:12:05.868Z,91.40
2019-04-06T05:18:10.250Z,91.40
2019-04-06T05:24:15.318Z,91.30
2019-04-06T05:30:17.924Z,91.70
2019-04-06T05:36:22.985Z,91.30
2019-04-06T05:42:25.406Z,91.80
2019-04-06T05:48:31.100Z,92.10
2019-04-06T05:54:33.711Z,91.80
2019-04-06T06:00:40.127Z,91.90
2019-04-06T06:06:41.107Z,92.10
2019-04-06T06:12:43.960Z,92.50
2019-04-06T06:18:46.414Z,92.40
2019-04-06T06:24:48.683Z,92.10
2019-04-06T06:30:51.045Z,91.60
2019-04-06T06:36:54.415Z,90.80
2019-04-06T06:42:56.768Z,90.30
2019-04-06T06:48:59.442Z,89.60
2019-04-06T06:55:02.137Z,89.00
2019-04-06T07:01:04.477Z,87.30
2019-04-06T07:07:06.713Z,86.10
2019-04-06T07:13:08.925Z,86.70
2019-04-06T07:19:11.133Z,86.80
2019-04-06T07:25:13.978Z,85.10
2019-04-06T07:31:16.592Z,83.40
2019-04-06T07:37:19.019Z,82.50
2019-04-06T07:43:22.993Z,79.00
2019-04-06T07:49:25.651Z,64.50
2019-04-06T07:55:30.877Z,65.30
2019-04-06T08:01:33.449Z,70.90
2019-04-06T08:07:36.052Z,72.60
2019-04-06T08:13:39.530Z,75.40
2019-04-06T08:19:41.963Z,77.10
2019-04-06T08:25:44.266Z,78.90
2019-04-06T08:31:46.725Z,77.80
2019-04-06T08:37:49.100Z,78.00
2019-04-06T08:43:51.627Z,78.40
2019-04-06T08:49:54.061Z,75.90
2019-04-06T08:55:57.543Z,74.80
2019-04-06T09:02:02.789Z,74.20
2019-04-06T09:08:05.268Z,75.00
2019-04-06T09:14:07.684Z,71.50
2019-04-06T09:20:12.678Z,69.00
2019-04-06T09:26:15.430Z,68.20
2019-04-06T09:32:18.435Z,68.20
2019-04-06T09:38:21.151Z,64.40
2019-04-06T09:44:28.442Z,63.90
2019-04-06T09:50:34.965Z,62.40
2019-04-06T09:56:42.810Z,58.50
2019-04-06T10:02:55.648Z,56.70
2019-04-06T10:09:16.973Z,55.40
2019-04-06T10:15:42.616Z,54.80
2019-04-06T10:21:53.583Z,53.20
2019-04-06T10:28:00.892Z,53.10
2019-04-06T10:34:25.472Z,53.90
2019-04-06T10:40:31.890Z,53.70
2019-04-06T10:47:02.768Z,56.80
2019-04-06T10:53:08.393Z,56.90
2019-04-06T10:59:19.970Z,58.70
2019-04-06T11:05:43.065Z,59.50
2019-04-06T11:12:06.289Z,58.90
2019-04-06T11:18:28.249Z,58.30
2019-04-06T11:24:53.735Z,58.50
2019-04-06T11:31:16.491Z,58.50
2019-04-06T11:37:28.822Z,55.20
2019-04-06T11:43:54.230Z,54.30
2019-04-06T11:50:13.403Z,55.50
2019-04-06T11:56:34.178Z,54.70
2019-04-06T12:02:55.204Z,55.50
2019-04-06T12:09:24.508Z,54.20
2019-04-06T12:15:44.567Z,53.20
2019-04-06T12:22:01.903Z,53.50
2019-04-06T12:34:41.128Z,51.90
2019-04-06T12:40:53.193Z,50.60
2019-04-06T12:47:15.723Z,49.20
2019-04-06T12:53:45.160Z,48.80
2019-04-06T13:00:06.209Z,48.90
2019-04-06T13:06:42.647Z,48.00
2019-04-06T13:13:03.871Z,47.00
2019-04-06T13:19:14.770Z,47.10
2019-04-06T13:25:26.696Z,46.80
2019-04-06T13:31:34.001Z,46.50
2019-04-06T13:37:42.660Z,45.10
2019-04-06T13:44:04.935Z,44.70
2019-04-06T13:50:13.199Z,44.00
2019-04-06T13:56:29.244Z,44.40
2019-04-06T14:02:42.352Z,42.60
2019-04-06T14:08:58.966Z,39.70
2019-04-06T14:15:03.681Z,41.10
2019-04-06T14:21:34.420Z,41.10
2019-04-06T14:27:44.065Z,40.60
2019-04-06T14:34:04.862Z,41.30
2019-04-06T14:40:09.344Z,42.90
2019-04-06T14:46:16.670Z,41.10
2019-04-06T14:52:25.125Z,41.60
2019-04-06T14:58:45.724Z,42.00
2019-04-06T15:04:59.232Z,41.40
2019-04-06T15:11:04.795Z,42.20
2019-04-06T15:17:22.160Z,43.10
2019-04-06T15:23:32.012Z,41.90
2019-04-06T15:29:44.181Z,42.50
2019-04-06T15:35:58.709Z,41.40
2019-04-06T15:42:10.635Z,42.60
2019-04-06T15:48:38.752Z,42.50
2019-04-06T15:54:55.381Z,43.30
2019-04-06T16:01:04.983Z,43.70
2019-04-06T16:07:12.799Z,43.20
2019-04-06T16:13:29.907Z,43.70
2019-04-06T16:19:44.080Z,44.20
2019-04-06T16:26:05.193Z,44.60
2019-04-06T16:32:32.934Z,45.70
2019-04-06T16:38:44.433Z,46.60
2019-04-06T16:44:57.891Z,47.40
2019-04-06T16:51:20.226Z,48.00
2019-04-06T16:57:30.454Z,48.60
2019-04-06T17:03:38.459Z,48.90
2019-04-06T17:10:02.059Z,50.20
2019-04-06T17:16:09.653Z,50.10
2019-04-06T17:22:30.641Z,50.70
2019-04-06T17:28:35.869Z,50.80
2019-04-06T17:34:54.514Z,52.00
2019-04-06T17:41:04.246Z,52.50
2019-04-06T17:47:08.810Z,52.90
2019-04-06T17:53:29.866Z,53.40
2019-04-06T17:59:34.964Z,54.10
2019-04-06T18:05:57.014Z,54.40
2019-04-06T18:12:01.202Z,55.40
2019-04-06T18:18:04.348Z,56.20
2019-04-06T18:24:06.699Z,56.50
2019-04-06T18:30:09.189Z,57.10
2019-04-06T18:36:11.856Z,57.70
2019-04-06T18:42:14.241Z,58.10
2019-04-06T18:48:16.900Z,58.90
2019-04-06T18:54:19.937Z,59.80
2019-04-06T19:00:24.220Z,60.40
2019-04-06T19:06:28.249Z,61.70
2019-04-06T19:12:32.563Z,62.10
2019-04-06T19:18:36.277Z,62.90
2019-04-06T19:24:42.050Z,63.20
2019-04-06T19:30:45.126Z,64.40
2019-04-06T19:36:50.973Z,65.00
2019-04-06T19:43:00.066Z,66.10
2019-04-06T19:49:00.162Z,67.30
2019-04-06T19:55:03.904Z,68.40
2019-04-06T20:01:09.501Z,69.30
2019-04-06T20:07:12.720Z,70.30
2019-04-06T20:13:15.891Z,71.50
2019-04-06T20:19:18.976Z,73.00
2019-04-06T20:25:25.363Z,73.20
2019-04-06T20:31:29.729Z,73.40
2019-04-06T20:37:34.464Z,73.40
2019-04-06T20:43:37.152Z,74.30
2019-04-06T20:49:40.144Z,74.60
2019-04-06T20:55:43.097Z,75.50
2019-04-06T21:01:49.583Z,76.00
2019-04-06T21:07:53.007Z,76.30
2019-04-06T21:13:58.329Z,76.60
2019-04-06T21:20:01.630Z,77.20
2019-04-06T21:26:05.102Z,77.10
2019-04-06T21:32:08.196Z,77.60
2019-04-06T21:38:13.278Z,78.10
2019-04-06T21:44:15.781Z,78.60
2019-04-06T21:50:20.537Z,78.90
2019-04-06T21:56:23.559Z,79.20
2019-04-06T22:02:26.217Z,79.60
2019-04-06T22:08:33.610Z,80.70
2019-04-06T22:20:47.092Z,81.10
2019-04-06T22:26:52.416Z,81.80
2019-04-06T22:32:55.056Z,81.70
2019-04-06T22:38:57.830Z,82.30
2019-04-06T22:45:01.430Z,82.60
2019-04-06T22:51:03.761Z,83.30
2019-04-06T23:09:37.172Z,84.20
2019-04-06T23:36:51.154Z,85.60
2019-04-06T23:42:53.758Z,86.30
2019-04-06T23:49:51.779Z,86.60
2019-04-06T23:55:54.623Z,87.30
